sim
Sign-in with your pilot id or email,
or register
Callsign
Passwort

Schedule Details

Flight Number: OEO7890
Departure: Leipzig Halle Airport (EDDP) at 10:30
Arrival: Fuerteventura Airport (GCFV) at 15:55

Weather Information
Getting current METAR information for EDDP 212250Z 05008KT CAVOK 12/02 Q1018 NOSIG
Getting current METAR information for GCFV 212230Z AUTO 33007KT 300V360 9999 BKN027 19/13 Q1015

Schedule Frequency

Route Map